Time;durP1;ratioP1;P1;durP2;ratioP2;P2;SDS_P1;SDS_P2;PMS_P1;PMS_P2;Temp;Humidity;BMP_temperature;BMP_pressure;BME280_temperature;BME280_humidity;BME280_pressure;Samples;Min_cycle;Max_cycle;Signal;HPM_P1;HPM_P2
2023/06/04 00:01:02;;;;;;;8.55;4.40;;;9.90;99.90;;;;;;5132789;27;20412;-88
2023/06/04 00:03:28;;;;;;;6.43;3.58;;;9.50;99.90;;;;;;5115486;27;20801;-87
2023/06/04 00:05:53;;;;;;;7.93;4.50;;;9.50;99.90;;;;;;5114827;27;20902;-88
2023/06/04 00:08:19;;;;;;;7.73;3.43;;;9.50;99.90;;;;;;5132562;27;20417;-89
2023/06/04 00:10:45;;;;;;;6.72;4.70;;;9.50;99.90;;;;;;5115130;27;20487;-88
2023/06/04 00:13:10;;;;;;;5.57;3.53;;;9.40;99.90;;;;;;5115886;27;20400;-88
2023/06/04 00:15:36;;;;;;;5.75;3.20;;;9.40;99.90;;;;;;5115357;27;20491;-88
2023/06/04 00:18:02;;;;;;;7.55;3.70;;;9.30;99.90;;;;;;5115045;27;20539;-88
2023/06/04 00:20:27;;;;;;;8.53;4.07;;;9.40;99.90;;;;;;5114988;27;20389;-88
2023/06/04 00:22:53;;;;;;;8.48;4.75;;;9.30;99.90;;;;;;5114996;27;20397;-88
2023/06/04 00:25:19;;;;;;;11.70;5.63;;;9.30;99.90;;;;;;5115148;27;20424;-88
2023/06/04 00:27:44;;;;;;;10.17;4.87;;;9.30;99.90;;;;;;5131915;27;20396;-88
2023/06/04 00:30:11;;;;;;;7.97;4.80;;;9.30;99.90;;;;;;5115526;27;20915;-88
2023/06/04 00:32:36;;;;;;;7.40;3.40;;;9.20;99.90;;;;;;5132247;27;20925;-88
2023/06/04 00:35:02;;;;;;;8.13;4.43;;;9.30;99.90;;;;;;5115026;27;20397;-88
2023/06/04 00:37:29;;;;;;;8.23;5.55;;;9.20;99.90;;;;;;5114993;27;20396;-88
2023/06/04 00:39:55;;;;;;;10.07;5.10;;;9.20;99.90;;;;;;5131877;27;20814;-88
2023/06/04 00:42:21;;;;;;;9.67;4.90;;;9.20;99.90;;;;;;5114514;27;20491;-88
2023/06/04 00:44:47;;;;;;;9.48;4.60;;;9.20;99.90;;;;;;5131101;27;20520;-89
2023/06/04 00:47:14;;;;;;;9.50;5.93;;;9.10;99.90;;;;;;5114558;27;20403;-88
2023/06/04 00:49:41;;;;;;;8.47;5.20;;;9.50;99.90;;;;;;5114016;27;20454;-88
2023/06/04 00:52:09;;;;;;;9.15;4.85;;;9.10;99.90;;;;;;5131811;27;20397;-88
2023/06/04 00:54:35;;;;;;;7.80;4.63;;;9.10;99.90;;;;;;5131460;27;20431;-88
2023/06/04 00:57:01;;;;;;;8.75;5.00;;;9.10;99.90;;;;;;5114358;27;20395;-88
2023/06/04 00:59:28;;;;;;;8.77;4.40;;;9.10;99.90;;;;;;5114598;27;20472;-88
2023/06/04 01:01:59;;;;;;;8.35;4.82;;;9.00;99.90;;;;;;5113772;27;20480;-88
2023/06/04 01:04:43;;;;;;;8.00;4.60;;;9.10;99.90;;;;;;5114313;27;20417;-88
2023/06/04 01:07:13;;;;;;;11.17;4.80;;;9.10;99.90;;;;;;5113797;27;20508;-88
2023/06/04 01:09:38;;;;;;;12.48;7.47;;;9.00;99.90;;;;;;5114575;27;20497;-89
2023/06/04 01:12:08;;;;;;;12.37;6.20;;;9.00;99.90;;;;;;5114038;27;20824;-87
2023/06/04 01:14:33;;;;;;;10.38;4.80;;;9.00;99.90;;;;;;5131047;27;20385;-87
2023/06/04 01:17:17;;;;;;;11.83;5.97;;;9.00;99.90;;;;;;5114141;27;20964;-88
2023/06/04 01:20:14;;;;;;;14.48;6.85;;;9.00;99.90;;;;;;5130732;27;20771;-88
2023/06/04 01:22:51;;;;;;;10.30;6.03;;;8.90;99.90;;;;;;5114540;27;20413;-88
2023/06/04 01:25:38;;;;;;;9.75;6.00;;;8.90;99.90;;;;;;5130885;27;20911;-88
2023/06/04 01:28:06;;;;;;;10.68;6.07;;;8.90;99.90;;;;;;5113680;27;20397;-88
2023/06/04 01:30:34;;;;;;;8.07;5.57;;;9.20;99.90;;;;;;5131010;27;20434;-87
2023/06/04 01:33:01;;;;;;;9.05;4.95;;;8.90;99.90;;;;;;5113229;27;20408;-88
2023/06/04 01:35:28;;;;;;;9.82;4.68;;;8.70;99.90;;;;;;5131083;27;20415;-88
2023/06/04 01:37:55;;;;;;;10.70;6.00;;;8.60;99.90;;;;;;5113978;27;20401;-87
2023/06/04 01:40:21;;;;;;;8.45;6.25;;;8.60;99.90;;;;;;5113733;27;20412;-88
2023/06/04 01:42:46;;;;;;;7.07;4.03;;;8.50;99.90;;;;;;5113574;27;20403;-89
2023/06/04 01:45:12;;;;;;;4.50;2.50;;;8.50;99.90;;;;;;5130593;27;20491;-88
2023/06/04 01:47:38;;;;;;;7.07;5.37;;;8.30;99.90;;;;;;5113656;27;20389;-88
2023/06/04 01:50:10;;;;;;;9.00;5.95;;;8.30;99.90;;;;;;5130331;27;20481;-88
2023/06/04 01:52:36;;;;;;;7.40;4.25;;;8.30;99.90;;;;;;5113008;27;20429;-88
2023/06/04 01:55:04;;;;;;;6.80;4.20;;;8.40;99.90;;;;;;5113217;27;20393;-87
2023/06/04 01:57:30;;;;;;;9.40;5.60;;;8.20;99.90;;;;;;5130907;27;20401;-87
2023/06/04 01:59:56;;;;;;;9.70;6.00;;;8.20;99.90;;;;;;5130386;27;20400;-87
2023/06/04 02:02:22;;;;;;;7.10;5.03;;;8.20;99.90;;;;;;5112647;27;20385;-87
2023/06/04 02:04:47;;;;;;;6.45;4.45;;;8.20;99.90;;;;;;5130145;27;20492;-87
2023/06/04 02:07:17;;;;;;;5.97;3.80;;;8.10;99.90;;;;;;5129808;27;20461;-88
2023/06/04 02:09:43;;;;;;;7.15;4.50;;;8.10;99.90;;;;;;5113553;27;20400;-88
2023/06/04 02:12:09;;;;;;;9.15;5.63;;;8.10;99.90;;;;;;5112927;27;20751;-87
2023/06/04 02:14:34;;;;;;;9.57;5.88;;;8.00;99.90;;;;;;5113373;27;20405;-88
2023/06/04 02:17:00;;;;;;;6.47;5.30;;;8.00;99.90;;;;;;5113187;27;20483;-86
2023/06/04 02:19:26;;;;;;;9.03;5.97;;;7.90;99.90;;;;;;5129713;27;20488;-87
2023/06/04 02:21:55;;;;;;;9.57;5.90;;;7.90;99.90;;;;;;5112998;27;20418;-88
2023/06/04 02:24:21;;;;;;;7.60;4.30;;;7.80;99.90;;;;;;5129150;27;20424;-88
2023/06/04 02:26:46;;;;;;;5.80;3.97;;;7.80;99.90;;;;;;5112666;27;20401;-87
2023/06/04 02:29:12;;;;;;;5.00;3.63;;;7.70;99.90;;;;;;5112734;27;20756;-87
2023/06/04 02:31:37;;;;;;;7.07;5.13;;;7.80;99.90;;;;;;5129940;27;20804;-88
2023/06/04 02:34:03;;;;;;;5.45;4.40;;;7.50;99.90;;;;;;5112322;27;20879;-87
2023/06/04 02:36:30;;;;;;;5.43;4.53;;;7.40;99.90;;;;;;5112353;27;20413;-88
2023/06/04 02:38:56;;;;;;;6.68;5.07;;;7.40;99.90;;;;;;5112608;27;20404;-88
2023/06/04 02:41:23;;;;;;;6.90;4.90;;;7.40;99.90;;;;;;5129079;27;20760;-87
2023/06/04 02:43:49;;;;;;;7.25;4.18;;;7.40;99.90;;;;;;5129637;27;20535;-88
2023/06/04 02:46:15;;;;;;;7.65;5.13;;;7.40;99.90;;;;;;5112164;27;20500;-88
2023/06/04 02:48:41;;;;;;;6.07;5.15;;;7.50;99.90;;;;;;5129307;27;20900;-87
2023/06/04 02:51:09;;;;;;;9.38;5.50;;;7.50;99.90;;;;;;5128956;27;20842;-87
2023/06/04 02:53:36;;;;;;;9.98;6.28;;;7.50;99.90;;;;;;5129162;27;20413;-87
2023/06/04 02:56:01;;;;;;;10.23;6.30;;;7.50;99.90;;;;;;5111974;27;20476;-87
2023/06/04 02:58:28;;;;;;;8.57;5.17;;;8.00;99.90;;;;;;5111731;27;20545;-87
2023/06/04 03:00:55;;;;;;;6.32;4.10;;;7.50;99.90;;;;;;5111821;27;20405;-87
2023/06/04 03:03:22;;;;;;;6.82;4.40;;;7.90;99.90;;;;;;5110845;27;20545;-87
2023/06/04 03:05:47;;;;;;;8.30;5.10;;;7.20;99.90;;;;;;5128924;27;20914;-87
2023/06/04 03:08:13;;;;;;;6.03;3.73;;;7.50;99.90;;;;;;5128504;27;20405;-87
2023/06/04 03:10:39;;;;;;;6.53;4.97;;;7.10;99.90;;;;;;5129170;27;20477;-86
2023/06/04 03:13:05;;;;;;;8.63;5.15;;;7.30;99.90;;;;;;5128567;27;20903;-86
2023/06/04 03:15:30;;;;;;;10.35;5.15;;;7.30;99.90;;;;;;5147297;27;20441;-86
2023/06/04 03:17:56;;;;;;;8.23;5.60;;;7.40;99.90;;;;;;5128691;27;20401;-87
2023/06/04 03:20:24;;;;;;;8.23;5.70;;;7.20;99.90;;;;;;5128082;27;20403;-87
2023/06/04 03:22:50;;;;;;;7.07;4.82;;;8.00;99.90;;;;;;5111997;27;20412;-87
2023/06/04 03:25:16;;;;;;;8.88;6.20;;;7.20;99.90;;;;;;5110646;27;20528;-86
2023/06/04 03:27:44;;;;;;;8.70;4.93;;;7.10;99.90;;;;;;5128572;27;21430;-87
2023/06/04 03:30:10;;;;;;;6.35;4.60;;;7.00;99.90;;;;;;5111332;27;20432;-86
2023/06/04 03:32:35;;;;;;;5.85;4.35;;;7.00;99.90;;;;;;5128980;27;20443;-87
2023/06/04 03:35:03;;;;;;;5.70;4.03;;;6.90;99.90;;;;;;5128930;27;21182;-87
2023/06/04 03:37:28;;;;;;;5.90;5.07;;;7.00;99.90;;;;;;5127880;27;20443;-86
2023/06/04 03:39:54;;;;;;;5.37;4.03;;;7.00;99.90;;;;;;5111398;27;20496;-88
2023/06/04 03:42:20;;;;;;;6.20;4.63;;;6.90;99.90;;;;;;5128334;27;20400;-87
2023/06/04 03:44:46;;;;;;;5.37;4.83;;;6.90;99.90;;;;;;5128556;27;20524;-87
2023/06/04 03:47:11;;;;;;;8.52;5.40;;;6.90;99.90;;;;;;5128522;27;20876;-86
2023/06/04 03:49:37;;;;;;;6.63;5.50;;;6.90;99.90;;;;;;5111716;27;20786;-86
2023/06/04 03:52:03;;;;;;;7.27;5.63;;;7.00;99.90;;;;;;5128352;27;20476;-87
2023/06/04 03:54:29;;;;;;;8.98;5.72;;;7.00;99.90;;;;;;5128184;27;20409;-88
2023/06/04 03:56:54;;;;;;;6.07;5.47;;;7.00;99.90;;;;;;5111376;27;20468;-88
2023/06/04 03:59:20;;;;;;;6.47;5.03;;;7.10;99.90;;;;;;5111112;27;20774;-86
2023/06/04 04:01:46;;;;;;;9.05;6.07;;;7.20;99.90;;;;;;5111350;27;20393;-87
2023/06/04 04:04:11;;;;;;;10.77;6.60;;;7.20;99.90;;;;;;5146258;27;20990;-87
2023/06/04 04:06:37;;;;;;;5.80;5.20;;;7.30;99.90;;;;;;5128599;27;20396;-86
2023/06/04 04:09:04;;;;;;;5.53;4.87;;;7.30;99.90;;;;;;5127760;27;20404;-86
2023/06/04 04:11:29;;;;;;;12.13;8.23;;;7.30;99.90;;;;;;5128303;27;20405;-87
2023/06/04 04:13:56;;;;;;;11.30;8.80;;;7.40;99.90;;;;;;5127952;27;20404;-87
2023/06/04 04:16:22;;;;;;;9.07;7.65;;;7.50;99.90;;;;;;5129476;27;20381;-87
2023/06/04 04:18:47;;;;;;;9.65;8.52;;;7.60;99.90;;;;;;5132140;27;20744;-88
2023/06/04 04:21:13;;;;;;;8.13;5.80;;;7.70;99.90;;;;;;5114491;27;20456;-87
2023/06/04 04:23:42;;;;;;;9.23;7.05;;;7.90;99.90;;;;;;5115070;27;20770;-87
2023/06/04 04:26:08;;;;;;;7.65;5.85;;;8.00;99.90;;;;;;5114439;27;20453;-87
2023/06/04 04:28:34;;;;;;;11.70;9.23;;;8.10;99.90;;;;;;5114964;27;20473;-87
2023/06/04 04:31:02;;;;;;;9.60;7.93;;;8.30;99.90;;;;;;5132047;27;20441;-87
2023/06/04 04:33:32;;;;;;;7.85;6.80;;;8.40;99.90;;;;;;5131474;27;20990;-88
2023/06/04 04:35:59;;;;;;;11.68;8.48;;;8.50;99.90;;;;;;5131860;27;20396;-87
2023/06/04 04:38:25;;;;;;;8.52;7.63;;;8.70;99.90;;;;;;5114118;27;20423;-87
2023/06/04 04:40:52;;;;;;;12.48;9.60;;;8.90;99.90;;;;;;5131837;27;20398;-87
2023/06/04 04:43:41;;;;;;;10.63;8.40;;;9.00;99.90;;;;;;5114181;27;20409;-88
2023/06/04 04:46:07;;;;;;;11.20;8.13;;;9.20;99.90;;;;;;5114371;27;20421;-87
2023/06/04 04:48:32;;;;;;;13.18;10.20;;;9.40;99.90;;;;;;5114657;27;20401;-87
2023/06/04 04:50:58;;;;;;;14.40;11.60;;;9.60;99.90;;;;;;5114134;27;20481;-88
2023/06/04 04:53:24;;;;;;;13.52;9.93;;;9.80;99.90;;;;;;5114730;27;20393;-88
2023/06/04 04:55:49;;;;;;;14.43;10.80;;;9.90;99.90;;;;;;5113823;27;20385;-90
2023/06/04 04:58:15;;;;;;;15.03;11.20;;;10.10;99.90;;;;;;5114708;27;20888;-86
2023/06/04 05:00:41;;;;;;;15.85;11.25;;;10.30;99.90;;;;;;5131339;27;20393;-88
2023/06/04 05:03:07;;;;;;;15.00;12.40;;;10.50;99.90;;;;;;5114926;27;20465;-88
2023/06/04 05:05:33;;;;;;;18.27;13.00;;;10.70;99.90;;;;;;5114050;27;20456;-87
2023/06/04 05:07:59;;;;;;;16.65;12.82;;;11.00;99.90;;;;;;5131338;27;20407;-89
2023/06/04 05:10:24;;;;;;;27.47;14.77;;;11.20;99.90;;;;;;5114602;27;20810;-88
2023/06/04 05:12:55;;;;;;;22.05;15.43;;;11.40;99.90;;;;;;5113766;27;20393;-87
2023/06/04 05:15:21;;;;;;;20.75;14.40;;;11.60;99.90;;;;;;5114646;27;20427;-87
2023/06/04 05:17:46;;;;;;;21.55;14.50;;;11.80;99.90;;;;;;5114028;27;20896;-87
2023/06/04 05:20:13;;;;;;;18.77;13.85;;;12.00;99.90;;;;;;5114168;27;20436;-89
2023/06/04 05:22:39;;;;;;;18.13;12.93;;;12.20;99.90;;;;;;5114283;27;20754;-88
2023/06/04 05:25:08;;;;;;;18.17;12.63;;;12.30;99.90;;;;;;5113868;27;20425;-88
2023/06/04 05:27:35;;;;;;;17.67;11.88;;;12.50;99.90;;;;;;5114117;27;20401;-88
2023/06/04 05:30:02;;;;;;;14.27;10.60;;;12.70;99.90;;;;;;5113580;27;20392;-88
2023/06/04 05:32:29;;;;;;;18.17;8.93;;;12.90;99.90;;;;;;5113982;27;20946;-89
2023/06/04 05:34:58;;;;;;;16.70;9.20;;;13.00;99.90;;;;;;5113547;27;20445;-89
2023/06/04 05:37:28;;;;;;;13.43;7.38;;;13.40;99.90;;;;;;5131418;27;20902;-89
2023/06/04 05:39:55;;;;;;;13.07;8.27;;;13.50;99.90;;;;;;5113989;27;20748;-89
2023/06/04 05:42:21;;;;;;;13.82;8.32;;;13.40;99.90;;;;;;5113758;27;20957;-89
2023/06/04 05:44:46;;;;;;;16.40;7.07;;;13.90;99.90;;;;;;5113895;27;20537;-88
2023/06/04 05:47:12;;;;;;;14.63;7.80;;;13.70;99.90;;;;;;5113283;27;20484;-87
2023/06/04 05:49:37;;;;;;;13.30;6.97;;;14.30;99.90;;;;;;5130960;27;20397;-88
2023/06/04 05:52:03;;;;;;;10.07;5.17;;;14.20;99.90;;;;;;5130023;27;20400;-88
2023/06/04 05:54:29;;;;;;;10.43;4.88;;;14.10;99.90;;;;;;5114247;27;20395;-85
2023/06/04 05:56:56;;;;;;;14.02;5.25;;;14.20;99.90;;;;;;5148734;27;20755;-89
2023/06/04 05:59:21;;;;;;;10.23;4.28;;;14.50;99.90;;;;;;5130627;27;20396;-89
2023/06/04 06:01:47;;;;;;;9.95;4.07;;;14.60;99.90;;;;;;5131131;27;20488;-89
2023/06/04 06:04:15;;;;;;;10.80;3.78;;;14.50;99.90;;;;;;5113117;27;20942;-90
2023/06/04 06:06:43;;;;;;;9.13;3.40;;;14.60;99.90;;;;;;5113387;27;20793;-87
2023/06/04 06:09:10;;;;;;;10.90;3.72;;;14.90;99.90;;;;;;5113106;27;20856;-88
2023/06/04 06:11:36;;;;;;;9.88;2.75;;;14.90;99.90;;;;;;5130377;27;20849;-89
2023/06/04 06:14:02;;;;;;;7.57;2.28;;;15.00;99.90;;;;;;5112879;27;20812;-89
2023/06/04 06:16:28;;;;;;;10.38;2.75;;;15.30;99.90;;;;;;5113364;27;20448;-88
2023/06/04 06:18:53;;;;;;;10.10;2.70;;;15.20;99.90;;;;;;5112898;27;20412;-88
2023/06/04 06:21:20;;;;;;;10.97;2.93;;;15.60;99.90;;;;;;5130342;27;20512;-89
2023/06/04 06:23:45;;;;;;;10.40;2.53;;;15.30;99.90;;;;;;5130283;27;20407;-89
2023/06/04 06:26:11;;;;;;;9.45;2.10;;;15.70;99.90;;;;;;5112314;27;20475;-90
2023/06/04 06:28:37;;;;;;;7.47;2.17;;;15.80;99.90;;;;;;5113096;27;20480;-88
2023/06/04 06:31:03;;;;;;;8.57;2.28;;;15.60;99.90;;;;;;5112702;27;20559;-87
2023/06/04 06:33:28;;;;;;;8.40;2.20;;;15.60;99.90;;;;;;5113743;27;20420;-88
2023/06/04 06:35:54;;;;;;;8.98;2.13;;;15.70;99.90;;;;;;5112727;27;20393;-89
2023/06/04 06:38:20;;;;;;;6.93;2.00;;;15.70;99.90;;;;;;5112510;27;20405;-89
2023/06/04 06:40:45;;;;;;;8.05;2.22;;;15.80;99.90;;;;;;5112735;27;20907;-89
2023/06/04 06:43:11;;;;;;;7.77;1.90;;;16.00;99.90;;;;;;5113110;27;20453;-90
2023/06/04 06:45:37;;;;;;;6.88;1.60;;;16.10;99.90;;;;;;5113194;27;20487;-88
2023/06/04 06:48:03;;;;;;;5.18;1.20;;;16.30;99.90;;;;;;5112188;27;20464;-90
2023/06/04 06:50:29;;;;;;;6.45;1.52;;;16.40;99.90;;;;;;5129499;27;20888;-89
2023/06/04 06:52:55;;;;;;;8.80;1.67;;;16.40;99.90;;;;;;5112024;27;20424;-89
2023/06/04 06:55:21;;;;;;;5.77;1.67;;;16.70;99.90;;;;;;5113132;27;20911;-89
2023/06/04 06:57:46;;;;;;;5.97;1.30;;;16.50;99.90;;;;;;5112594;27;20401;-89
2023/06/04 07:00:12;;;;;;;7.03;1.20;;;16.50;99.90;;;;;;5112730;27;20404;-88
2023/06/04 07:02:38;;;;;;;6.13;1.30;;;16.70;99.90;;;;;;5112556;27;20412;-87
2023/06/04 07:05:04;;;;;;;5.28;1.00;;;16.80;99.90;;;;;;5111927;27;20421;-88
2023/06/04 07:07:29;;;;;;;6.38;1.27;;;16.80;99.90;;;;;;5129307;27;20902;-89
2023/06/04 07:09:55;;;;;;;5.43;1.23;;;17.10;99.90;;;;;;5129284;27;20477;-89
2023/06/04 07:12:21;;;;;;;6.70;1.42;;;17.20;99.90;;;;;;5112693;27;20742;-90
2023/06/04 07:14:46;;;;;;;4.63;1.30;;;17.20;99.90;;;;;;5112070;27;20416;-89
2023/06/04 07:17:12;;;;;;;5.63;1.23;;;17.20;99.90;;;;;;5112691;27;20911;-89
2023/06/04 07:19:38;;;;;;;6.40;1.25;;;17.60;99.90;;;;;;5111930;27;20476;-88
2023/06/04 07:22:03;;;;;;;5.33;1.30;;;17.50;99.90;;;;;;5112226;27;20951;-89
2023/06/04 07:24:29;;;;;;;5.15;1.13;;;17.40;99.90;;;;;;5112043;27;20512;-89
2023/06/04 07:26:55;;;;;;;4.87;1.10;;;17.50;99.90;;;;;;5111606;27;20480;-90
2023/06/04 07:29:20;;;;;;;4.68;0.90;;;17.60;99.90;;;;;;5112157;27;20420;-90
2023/06/04 07:31:46;;;;;;;5.43;0.97;;;17.60;99.90;;;;;;5111882;27;20405;-88
2023/06/04 07:34:11;;;;;;;4.90;0.90;;;17.70;99.90;;;;;;5129302;27;20415;-87
2023/06/04 07:36:37;;;;;;;4.30;0.80;;;17.80;99.90;;;;;;5111637;27;20488;-88
2023/06/04 07:39:05;;;;;;;4.03;0.80;;;18.10;99.90;;;;;;5129528;27;20747;-88
2023/06/04 07:41:31;;;;;;;5.28;0.80;;;17.80;99.90;;;;;;5129283;27;20416;-90
2023/06/04 07:43:57;;;;;;;4.65;0.70;;;18.20;99.90;;;;;;5112276;27;20906;-89
2023/06/04 07:46:22;;;;;;;3.80;0.77;;;18.10;99.90;;;;;;5111929;27;20399;-89
2023/06/04 07:48:48;;;;;;;3.73;0.83;;;18.40;98.50;;;;;;5111539;27;20752;-89
2023/06/04 07:51:14;;;;;;;5.65;0.88;;;18.30;99.90;;;;;;5130854;27;20515;-89
2023/06/04 07:53:41;;;;;;;3.75;0.70;;;18.60;99.00;;;;;;5132419;27;20910;-88
2023/06/04 07:56:06;;;;;;;3.65;0.65;;;18.60;96.30;;;;;;5116442;27;20399;-89
2023/06/04 07:58:32;;;;;;;2.67;0.63;;;18.90;95.70;;;;;;5115834;27;20759;-87
2023/06/04 08:00:58;;;;;;;4.65;1.00;;;18.50;94.50;;;;;;5132881;27;20966;-90
2023/06/04 08:03:24;;;;;;;4.10;0.80;;;18.50;95.00;;;;;;5132898;27;20396;-89
2023/06/04 08:05:50;;;;;;;3.38;0.63;;;18.80;96.20;;;;;;5115447;27;20420;-90
2023/06/04 08:08:15;;;;;;;3.85;0.95;;;18.90;97.80;;;;;;5133232;27;20925;-89
2023/06/04 08:10:41;;;;;;;3.90;0.60;;;19.10;98.30;;;;;;5115690;27;20399;-88
2023/06/04 08:13:08;;;;;;;3.50;0.65;;;19.00;94.80;;;;;;5115759;27;20812;-89
2023/06/04 08:15:34;;;;;;;4.35;1.00;;;19.50;95.30;;;;;;5115161;27;20457;-89
2023/06/04 08:17:59;;;;;;;5.30;1.20;;;19.20;93.80;;;;;;5115710;27;20389;-89
2023/06/04 08:20:25;;;;;;;3.80;0.80;;;19.30;92.00;;;;;;5115558;27;20963;-89
2023/06/04 08:22:51;;;;;;;3.92;0.73;;;19.50;96.10;;;;;;5115172;27;20482;-89
2023/06/04 08:25:17;;;;;;;4.10;0.70;;;19.40;96.10;;;;;;5115535;27;20935;-89
2023/06/04 08:27:43;;;;;;;4.68;1.05;;;19.50;93.80;;;;;;5115165;27;20405;-89
2023/06/04 08:30:09;;;;;;;4.35;0.90;;;19.50;90.00;;;;;;5115357;27;20491;-88
2023/06/04 08:32:35;;;;;;;3.33;0.60;;;19.40;92.90;;;;;;5114757;27;20464;-91
2023/06/04 08:35:01;;;;;;;4.65;0.70;;;19.70;93.50;;;;;;5115830;27;20998;-90
2023/06/04 08:37:26;;;;;;;5.03;0.77;;;19.60;89.40;;;;;;5115005;27;20401;-89
2023/06/04 08:39:52;;;;;;;4.47;0.80;;;19.60;89.60;;;;;;5115448;27;20404;-88
2023/06/04 08:42:33;;;;;;;3.22;0.63;;;19.90;83.40;;;;;;5115477;27;20454;-90
2023/06/04 08:44:58;;;;;;;4.32;0.98;;;19.60;93.80;;;;;;5114359;27;20523;-92
2023/06/04 08:47:28;;;;;;;4.03;0.60;;;19.80;91.90;;;;;;5115289;27;20492;-90
2023/06/04 08:49:58;;;;;;;3.22;0.70;;;19.90;75.50;;;;;;5114524;27;20401;-88
2023/06/04 08:52:25;;;;;;;2.70;0.65;;;20.00;91.20;;;;;;5132269;27;20822;-90
2023/06/04 08:54:52;;;;;;;2.67;0.63;;;20.00;76.20;;;;;;5114799;27;20393;-87
2023/06/04 08:57:21;;;;;;;2.83;0.60;;;20.00;77.50;;;;;;5114597;27;20951;-89
2023/06/04 08:59:47;;;;;;;3.45;0.80;;;20.00;79.50;;;;;;5115036;27;20397;-90
2023/06/04 09:02:16;;;;;;;2.50;0.68;;;20.10;81.40;;;;;;5131181;27;20930;-89
2023/06/04 09:04:44;;;;;;;3.92;1.00;;;20.10;69.80;;;;;;5114312;27;20962;-89
2023/06/04 09:07:13;;;;;;;3.85;0.65;;;20.10;75.90;;;;;;5112760;27;20397;-88
2023/06/04 09:09:41;;;;;;;3.80;0.60;;;20.10;77.20;;;;;;5114024;27;20441;-89
2023/06/04 09:12:15;;;;;;;3.97;0.60;;;20.00;67.40;;;;;;5113815;27;20416;-89
2023/06/04 09:14:41;;;;;;;2.97;0.60;;;20.20;68.70;;;;;;5113836;27;20431;-90
2023/06/04 09:17:06;;;;;;;2.45;0.50;;;19.80;83.10;;;;;;5113727;27;20397;-90
2023/06/04 09:19:32;;;;;;;3.97;0.53;;;20.30;89.10;;;;;;5113037;27;20472;-91
2023/06/04 09:22:02;;;;;;;3.92;0.77;;;20.20;75.10;;;;;;5114254;27;20401;-90
2023/06/04 09:24:42;;;;;;;2.97;0.67;;;20.30;84.50;;;;;;5113897;27;20427;-90
2023/06/04 09:27:19;;;;;;;3.67;0.70;;;20.50;79.00;;;;;;5114932;27;20465;-90
2023/06/04 09:29:53;;;;;;;3.03;0.70;;;20.70;84.30;;;;;;5114369;27;20401;-90
2023/06/04 09:32:26;;;;;;;3.63;0.60;;;21.00;74.50;;;;;;5114007;27;20421;-90
2023/06/04 09:34:52;;;;;;;2.85;0.52;;;21.10;69.50;;;;;;5114321;27;20433;-91
2023/06/04 09:37:19;;;;;;;4.25;0.68;;;21.30;74.00;;;;;;5113727;27;20477;-89
2023/06/04 09:39:53;;;;;;;3.63;0.75;;;21.50;70.40;;;;;;5114463;27;20748;-88
2023/06/04 09:42:19;;;;;;;3.10;0.80;;;21.50;69.50;;;;;;5113747;27;20914;-89
2023/06/04 09:44:48;;;;;;;3.10;0.65;;;21.40;60.30;;;;;;5113821;27;20421;-89
2023/06/04 09:47:15;;;;;;;3.40;0.80;;;21.60;65.80;;;;;;5131073;27;20433;-88
2023/06/04 09:49:42;;;;;;;3.53;0.82;;;21.70;67.20;;;;;;5130175;27;20476;-89
2023/06/04 09:52:08;;;;;;;1.75;0.47;;;21.70;65.40;;;;;;5131224;27;20393;-90
2023/06/04 09:54:38;;;;;;;3.70;0.75;;;21.80;62.20;;;;;;5131094;27;20809;-90
2023/06/04 09:57:05;;;;;;;3.42;0.70;;;22.10;64.00;;;;;;5131138;27;20903;-90
2023/06/04 09:59:39;;;;;;;2.65;0.70;;;21.70;58.40;;;;;;5113760;27;20396;-90
2023/06/04 10:02:07;;;;;;;2.38;0.50;;;22.00;59.60;;;;;;5113740;27;20393;-88
2023/06/04 10:04:35;;;;;;;3.10;0.70;;;22.10;62.10;;;;;;5130776;27;20428;-91
2023/06/04 10:07:05;;;;;;;3.40;0.60;;;22.10;58.40;;;;;;5113319;27;20401;-91
2023/06/04 10:09:31;;;;;;;3.03;0.60;;;22.40;61.40;;;;;;5131098;27;20395;-90
2023/06/04 10:11:59;;;;;;;2.00;0.50;;;22.70;60.20;;;;;;5113513;27;20785;-90
2023/06/04 10:14:29;;;;;;;3.08;0.60;;;22.60;56.00;;;;;;5113148;27;20389;-89
2023/06/04 10:16:57;;;;;;;3.63;0.57;;;23.00;56.90;;;;;;5112915;27;20393;-90
2023/06/04 10:19:24;;;;;;;2.20;0.47;;;23.10;55.00;;;;;;5113174;27;20389;-89
2023/06/04 10:21:50;;;;;;;2.08;0.60;;;23.40;55.30;;;;;;5113457;27;20492;-88
2023/06/04 10:24:16;;;;;;;2.83;0.60;;;23.30;54.50;;;;;;5112249;27;20956;-90
2023/06/04 10:26:42;;;;;;;3.05;0.63;;;23.30;53.10;;;;;;5113158;27;20439;-91
2023/06/04 10:29:08;;;;;;;2.83;0.70;;;23.40;53.60;;;;;;5112517;27;20421;-90
2023/06/04 10:31:36;;;;;;;2.27;0.50;;;23.50;54.10;;;;;;5113537;27;20443;-90
2023/06/04 10:34:03;;;;;;;3.83;0.60;;;23.80;54.70;;;;;;5112721;27;20397;-89
2023/06/04 10:36:28;;;;;;;2.97;0.50;;;24.10;53.90;;;;;;5130536;27;20436;-91
2023/06/04 10:38:55;;;;;;;2.50;0.50;;;24.50;50.00;;;;;;5113423;27;20440;-90
2023/06/04 10:41:22;;;;;;;2.13;0.57;;;24.80;48.00;;;;;;5130208;27;20416;-90
2023/06/04 10:44:00;;;;;;;2.47;0.50;;;24.90;47.40;;;;;;5113522;27;20755;-90
2023/06/04 10:46:26;;;;;;;2.63;0.57;;;24.80;48.20;;;;;;5112692;27;20445;-90
2023/06/04 10:48:52;;;;;;;2.58;0.57;;;25.10;47.90;;;;;;5113432;27;20405;-91
2023/06/04 10:51:32;;;;;;;2.05;0.50;;;25.30;48.10;;;;;;5129796;27;20393;-90
2023/06/04 10:53:59;;;;;;;2.43;0.60;;;25.70;49.90;;;;;;5129713;27;20488;-90
2023/06/04 10:56:34;;;;;;;2.72;0.50;;;25.80;45.00;;;;;;5129969;27;20397;-91
2023/06/04 10:59:12;;;;;;;2.90;0.50;;;25.90;43.80;;;;;;5112327;27;20460;-90
2023/06/04 11:01:37;;;;;;;2.85;0.68;;;26.20;46.70;;;;;;5129851;27;20389;-90
2023/06/04 11:04:03;;;;;;;2.97;0.43;;;26.30;43.30;;;;;;5111999;27;20471;-91
2023/06/04 11:06:30;;;;;;;2.60;0.60;;;26.40;45.30;;;;;;5112964;27;20942;-90
2023/06/04 11:09:06;;;;;;;2.35;0.60;;;26.50;42.10;;;;;;5113034;27;20397;-91
2023/06/04 11:11:32;;;;;;;3.25;0.60;;;26.80;44.10;;;;;;5112123;27;20389;-91
2023/06/04 11:14:12;;;;;;;2.72;0.60;;;26.70;42.40;;;;;;5130256;27;20498;-91
2023/06/04 11:16:38;;;;;;;1.95;0.45;;;26.90;44.70;;;;;;5111787;27;20398;-91
2023/06/04 11:19:04;;;;;;;2.30;0.50;;;26.90;43.60;;;;;;5129395;27;20400;-91
2023/06/04 11:21:33;;;;;;;3.20;0.57;;;27.10;45.20;;;;;;5112184;27;20949;-90
2023/06/04 11:23:59;;;;;;;2.78;0.68;;;27.20;42.00;;;;;;5108501;28;20398;-90
2023/06/04 11:26:32;;;;;;;2.87;0.50;;;27.20;41.70;;;;;;5125991;27;20456;-90
2023/06/04 11:28:58;;;;;;;2.40;0.57;;;27.10;42.40;;;;;;5108343;28;20407;-90
2023/06/04 11:31:24;;;;;;;3.70;0.80;;;27.20;43.10;;;;;;5109055;28;20387;-91
2023/06/04 11:33:51;;;;;;;2.78;0.52;;;27.30;42.60;;;;;;5108416;28;20395;-90
2023/06/04 11:36:30;;;;;;;2.80;0.60;;;27.20;39.90;;;;;;5108965;28;20402;-91
2023/06/04 11:39:02;;;;;;;2.35;0.55;;;27.30;42.30;;;;;;5125753;28;20761;-90
2023/06/04 11:41:29;;;;;;;2.40;0.50;;;27.30;42.60;;;;;;5108966;28;20403;-90
2023/06/04 11:43:57;;;;;;;2.20;0.50;;;27.60;41.60;;;;;;5125637;28;20424;-92
2023/06/04 11:46:23;;;;;;;2.50;0.50;;;28.00;40.70;;;;;;5108165;28;20430;-92
2023/06/04 11:48:51;;;;;;;1.90;0.50;;;28.20;39.40;;;;;;5108853;28;20406;-90
2023/06/04 11:51:16;;;;;;;2.38;0.50;;;28.30;40.30;;;;;;5108129;28;20394;-91
2023/06/04 11:53:42;;;;;;;2.17;0.60;;;28.50;40.70;;;;;;5108947;28;20421;-91
2023/06/04 11:56:09;;;;;;;2.30;0.60;;;28.50;38.70;;;;;;5125237;28;20954;-89
2023/06/04 11:58:35;;;;;;;1.85;0.50;;;28.60;38.60;;;;;;5125773;28;20418;-91
2023/06/04 12:01:01;;;;;;;2.00;0.50;;;28.50;40.40;;;;;;5108504;28;20901;-90
2023/06/04 12:03:39;;;;;;;3.75;0.65;;;28.70;39.80;;;;;;5108473;28;20398;-90
2023/06/04 12:06:20;;;;;;;2.55;0.68;;;28.80;40.10;;;;;;5108365;28;20501;-90
2023/06/04 12:08:50;;;;;;;2.90;0.57;;;29.00;39.20;;;;;;5108088;28;20421;-92
2023/06/04 12:11:33;;;;;;;2.25;0.60;;;28.90;40.00;;;;;;5108771;28;20399;-91
2023/06/04 12:14:00;;;;;;;3.78;0.43;;;28.80;36.90;;;;;;5108392;28;20769;-91
2023/06/04 12:16:27;;;;;;;2.70;0.50;;;28.70;40.00;;;;;;5108365;28;20406;-91
2023/06/04 12:19:12;;;;;;;2.13;0.50;;;28.90;40.30;;;;;;5108496;28;20394;-91
2023/06/04 12:21:43;;;;;;;2.83;0.60;;;29.10;40.10;;;;;;5107813;28;20399;-90
2023/06/04 12:24:13;;;;;;;2.55;0.60;;;28.90;37.50;;;;;;5108452;28;20797;-91
2023/06/04 12:26:43;;;;;;;1.58;0.40;;;28.90;40.20;;;;;;5125384;28;20907;-89
2023/06/04 12:29:11;;;;;;;3.20;0.50;;;28.80;40.20;;;;;;5108453;28;20398;-91
2023/06/04 12:31:38;;;;;;;1.83;0.50;;;28.60;37.20;;;;;;5108674;28;20494;-92
2023/06/04 12:34:04;;;;;;;2.75;0.50;;;28.30;37.60;;;;;;5108106;28;20445;-92
2023/06/04 12:36:29;;;;;;;1.93;0.43;;;28.00;39.30;;;;;;5108888;27;20394;-91
2023/06/04 12:38:59;;;;;;;2.17;0.60;;;27.90;41.30;;;;;;5111611;27;20395;-91
2023/06/04 12:41:25;;;;;;;2.30;0.65;;;28.50;40.20;;;;;;5129389;27;20414;-92
2023/06/04 12:43:51;;;;;;;2.55;0.60;;;28.90;37.50;;;;;;5111576;27;20394;-91
2023/06/04 12:46:17;;;;;;;1.88;0.43;;;28.70;39.40;;;;;;5111838;27;20704;-91
2023/06/04 12:48:42;;;;;;;1.77;0.40;;;28.70;37.00;;;;;;5111864;27;20430;-92